Terminal Aerodrome Forecast
Issued by NWS

Home | Current Version | Previous Version | Text Only | Print | Product List | Glossary On
Versions: 1 2 3 4 5 6 7 8 9 10 11 12 13 14 15 16 17 18 19 20 21 22 23 24 25 26 27 28 29 30 31 32 33 34 35 36 37 38 39 40 41 42 43
000
FTUS45 KBOU 121920 AAA
TAFAPA
TAF AMD
KAPA 121920Z 1219/1318 VRB05KT P6SM FEW008 SCT025 OVC027
     FM122100 VRB05KT P6SM SCT025 OVC035
     FM122200 VRB05KT P6SM SCT024 SCT040
     FM130100 13007KT P6SM FEW040
     FM130300 18008KT P6SM SKC
     FM131100 19004KT P6SM VCFG FEW002
     FM131400 18005KT P6SM SKC
     FM131700 10005KT P6SM SKC=

USA.gov is the U.S. government's official web portal to all federal, state and local government web resources and services.